Time;durP1;ratioP1;P1;durP2;ratioP2;P2;SDS_P1;SDS_P2;PMS_P1;PMS_P2;Temp;Humidity;BMP_temperature;BMP_pressure;BME280_temperature;BME280_humidity;BME280_pressure;Samples;Min_cycle;Max_cycle;Signal;HPM_P1;HPM_P2
2022/07/23 00:02:53;;;;;;;13.07;8.18;;;25.70;85.80;;;;;;5071852;28;20521;-72
2022/07/23 00:05:57;;;;;;;13.85;8.25;;;25.70;86.10;;;;;;5072002;28;20395;-72
2022/07/23 00:09:00;;;;;;;12.10;8.30;;;25.60;86.50;;;;;;5071648;28;20498;-72
2022/07/23 00:12:05;;;;;;;16.15;8.15;;;25.60;86.80;;;;;;5072254;28;20062;-72
2022/07/23 00:15:09;;;;;;;11.48;7.60;;;25.60;86.50;;;;;;5071784;28;20107;-71
2022/07/23 00:18:13;;;;;;;11.25;7.50;;;25.50;84.20;;;;;;5071984;28;20059;-72
2022/07/23 00:21:17;;;;;;;14.30;6.55;;;25.40;81.70;;;;;;5059330;28;20055;-72
2022/07/23 00:24:21;;;;;;;9.57;6.32;;;25.30;79.50;;;;;;5071270;28;20044;-71
2022/07/23 00:27:25;;;;;;;12.05;7.40;;;25.30;78.80;;;;;;5059071;28;20047;-72
2022/07/23 00:30:31;;;;;;;14.63;6.78;;;25.30;78.80;;;;;;5071403;28;20052;-72
2022/07/23 00:33:36;;;;;;;11.57;7.10;;;25.30;78.60;;;;;;5070802;28;20411;-71
2022/07/23 00:36:41;;;;;;;15.02;7.60;;;25.30;78.60;;;;;;5071285;28;20390;-72
2022/07/23 00:39:45;;;;;;;13.68;7.43;;;25.20;80.00;;;;;;5071751;28;20047;-72
2022/07/23 00:42:49;;;;;;;13.65;7.88;;;25.20;80.60;;;;;;5050678;28;20051;-71
2022/07/23 00:45:53;;;;;;;11.82;6.78;;;25.20;81.20;;;;;;5058785;28;20506;-72
2022/07/23 00:48:57;;;;;;;14.45;7.25;;;25.10;81.40;;;;;;5071249;28;20039;-71
2022/07/23 00:52:02;;;;;;;10.57;7.72;;;24.90;81.30;;;;;;5058610;28;20047;-72
2022/07/23 00:55:08;;;;;;;11.93;7.85;;;24.90;81.20;;;;;;5070493;28;20043;-71
2022/07/23 00:58:12;;;;;;;16.23;6.82;;;24.90;80.80;;;;;;5071091;28;20044;-72
2022/07/23 01:01:16;;;;;;;11.45;6.85;;;24.90;80.60;;;;;;5070650;28;20047;-72
2022/07/23 01:04:20;;;;;;;14.18;6.82;;;24.90;79.30;;;;;;5070586;28;20044;-71
2022/07/23 01:07:24;;;;;;;8.93;6.43;;;24.90;78.50;;;;;;5058616;28;20043;-72
2022/07/23 01:10:31;;;;;;;9.07;6.38;;;24.90;77.30;;;;;;5070493;28;20055;-72
2022/07/23 01:13:35;;;;;;;8.57;6.30;;;24.80;75.90;;;;;;5070224;28;20036;-72
2022/07/23 01:16:40;;;;;;;10.13;6.28;;;24.80;75.40;;;;;;5070929;28;20047;-72
2022/07/23 01:19:43;;;;;;;11.63;5.72;;;24.70;73.90;;;;;;5071439;28;20119;-72
2022/07/23 01:22:48;;;;;;;8.43;6.05;;;24.70;74.00;;;;;;5058180;28;20035;-71
2022/07/23 01:25:54;;;;;;;12.50;6.03;;;24.60;74.10;;;;;;5058638;28;20498;-71
2022/07/23 01:29:00;;;;;;;8.88;6.45;;;24.60;73.90;;;;;;5058591;28;20047;-72
2022/07/23 01:32:05;;;;;;;9.90;6.00;;;24.60;73.50;;;;;;5070520;28;20036;-71
2022/07/23 01:35:09;;;;;;;9.20;6.00;;;24.60;72.90;;;;;;5057924;28;20043;-72
2022/07/23 01:38:14;;;;;;;10.07;5.88;;;24.50;72.70;;;;;;5054057;28;20052;-72
2022/07/23 01:41:18;;;;;;;10.63;6.25;;;24.50;73.40;;;;;;5058431;28;20048;-72
2022/07/23 01:44:22;;;;;;;8.80;6.22;;;24.50;73.50;;;;;;5058322;28;20051;-72
2022/07/23 01:47:27;;;;;;;9.80;6.38;;;24.50;73.60;;;;;;5070573;28;20051;-71
2022/07/23 01:50:33;;;;;;;12.85;6.57;;;24.50;75.80;;;;;;5058138;28;20051;-72
2022/07/23 01:53:42;;;;;;;8.73;6.65;;;24.10;77.30;;;;;;5070156;28;20058;-71
2022/07/23 01:56:46;;;;;;;13.45;7.57;;;24.10;76.60;;;;;;5070582;28;20051;-72
2022/07/23 01:59:50;;;;;;;15.30;7.93;;;23.90;80.90;;;;;;5058136;28;20052;-72
2022/07/23 02:02:58;;;;;;;11.30;7.65;;;23.80;82.50;;;;;;5057910;28;20051;-72
2022/07/23 02:06:02;;;;;;;13.93;7.68;;;23.60;84.50;;;;;;5054609;28;20387;-72
2022/07/23 02:09:07;;;;;;;14.30;7.97;;;23.40;86.00;;;;;;5061569;28;20040;-72
2022/07/23 02:12:11;;;;;;;11.85;8.15;;;23.30;88.50;;;;;;5073787;28;20047;-72
2022/07/23 02:15:15;;;;;;;14.57;8.35;;;23.30;89.70;;;;;;5073934;28;20047;-72
2022/07/23 02:18:20;;;;;;;14.00;7.72;;;23.20;89.70;;;;;;5057428;28;20048;-72
2022/07/23 02:21:24;;;;;;;13.85;8.23;;;23.20;88.10;;;;;;5074068;28;20044;-72
2022/07/23 02:24:28;;;;;;;11.82;7.25;;;23.10;87.80;;;;;;5073550;28;20379;-72
2022/07/23 02:27:33;;;;;;;12.07;8.15;;;23.10;88.40;;;;;;5061533;28;20043;-71
2022/07/23 02:30:42;;;;;;;10.63;7.57;;;23.00;88.30;;;;;;5061527;28;20411;-72
2022/07/23 02:33:47;;;;;;;12.35;8.38;;;23.00;88.50;;;;;;5060646;28;20060;-72
2022/07/23 02:36:52;;;;;;;16.52;9.27;;;23.00;88.90;;;;;;5061360;28;20506;-72
2022/07/23 02:39:55;;;;;;;10.20;7.55;;;23.00;88.10;;;;;;5061313;28;20052;-72
2022/07/23 02:42:59;;;;;;;14.40;7.20;;;23.10;86.20;;;;;;5061007;28;20063;-71
2022/07/23 02:46:04;;;;;;;10.55;6.93;;;23.10;85.00;;;;;;5073622;28;20051;-72
2022/07/23 02:49:09;;;;;;;11.98;7.40;;;23.10;83.70;;;;;;5060976;28;20048;-71
2022/07/23 02:52:13;;;;;;;9.43;6.55;;;23.20;83.60;;;;;;5061098;28;20044;-72
2022/07/23 02:55:17;;;;;;;9.43;6.88;;;23.20;83.00;;;;;;5049523;28;20051;-72
2022/07/23 02:58:21;;;;;;;15.50;6.78;;;23.20;82.70;;;;;;5057423;28;20051;-72
2022/07/23 03:01:26;;;;;;;13.68;6.65;;;23.20;82.80;;;;;;5049173;28;20399;-72
2022/07/23 03:04:30;;;;;;;11.85;7.20;;;23.10;83.20;;;;;;5060288;28;20036;-72
2022/07/23 03:07:34;;;;;;;12.65;7.57;;;23.00;83.90;;;;;;5060962;28;20043;-72
2022/07/23 03:10:38;;;;;;;14.00;8.30;;;22.90;85.40;;;;;;5060175;28;20047;-71
2022/07/23 03:13:42;;;;;;;21.10;9.30;;;22.90;88.50;;;;;;5060557;28;20040;-71
2022/07/23 03:16:46;;;;;;;11.95;8.10;;;22.80;90.00;;;;;;5071925;28;20592;-71
2022/07/23 03:19:50;;;;;;;13.82;8.55;;;22.80;88.30;;;;;;5060438;28;20044;-72
2022/07/23 03:22:54;;;;;;;13.45;8.27;;;22.80;89.40;;;;;;5072161;28;20052;-72
2022/07/23 03:25:58;;;;;;;14.75;8.55;;;22.80;89.40;;;;;;5060549;28;20048;-72
2022/07/23 03:29:03;;;;;;;16.45;8.68;;;22.80;90.70;;;;;;5053876;28;20047;-72
2022/07/23 03:32:08;;;;;;;11.10;7.97;;;22.80;90.50;;;;;;5060004;28;20383;-72
2022/07/23 03:35:12;;;;;;;14.30;7.80;;;22.80;90.60;;;;;;5059625;28;20047;-72
2022/07/23 03:38:24;;;;;;;19.63;8.43;;;22.80;90.60;;;;;;5060343;28;20055;-71
2022/07/23 03:41:29;;;;;;;22.35;8.05;;;22.70;90.80;;;;;;5060075;28;20055;-71
2022/07/23 03:44:34;;;;;;;21.30;8.45;;;22.60;90.90;;;;;;5059786;28;20047;-71
2022/07/23 03:47:40;;;;;;;14.55;8.38;;;22.60;91.10;;;;;;5060205;28;20039;-71
2022/07/23 03:50:43;;;;;;;15.15;8.10;;;22.60;91.10;;;;;;5072167;28;20035;-71
2022/07/23 03:53:48;;;;;;;13.18;8.13;;;22.50;91.20;;;;;;5059837;28;20048;-72
2022/07/23 03:56:54;;;;;;;9.55;7.55;;;22.50;91.40;;;;;;5060372;28;20036;-72
2022/07/23 03:59:59;;;;;;;14.05;7.88;;;22.50;91.40;;;;;;5059642;28;20047;-71
2022/07/23 04:03:03;;;;;;;17.75;7.65;;;22.50;91.40;;;;;;5053602;28;20051;-72
2022/07/23 04:06:08;;;;;;;16.98;8.32;;;22.60;91.20;;;;;;5059689;28;20047;-71
2022/07/23 04:09:13;;;;;;;13.40;7.75;;;22.60;91.10;;;;;;5059643;28;20494;-71
2022/07/23 04:12:17;;;;;;;16.63;7.95;;;22.70;90.90;;;;;;5059454;28;20119;-71
2022/07/23 04:15:21;;;;;;;15.68;8.18;;;22.80;90.90;;;;;;5071267;28;20035;-71
2022/07/23 04:18:25;;;;;;;11.52;7.38;;;22.90;90.60;;;;;;5056745;28;20047;-72
2022/07/23 04:21:45;;;;;;;13.55;7.72;;;22.90;90.50;;;;;;5059536;28;20043;-71
2022/07/23 04:24:50;;;;;;;20.45;8.63;;;22.90;90.70;;;;;;5071240;28;20490;-71
2022/07/23 04:27:54;;;;;;;14.35;8.40;;;22.90;91.10;;;;;;5051569;28;20043;-72
2022/07/23 04:30:58;;;;;;;18.90;8.70;;;22.80;91.60;;;;;;5071405;28;20506;-71
2022/07/23 04:34:02;;;;;;;12.52;8.80;;;22.80;91.80;;;;;;5058197;28;20067;-71
2022/07/23 04:37:08;;;;;;;16.10;9.02;;;22.70;92.00;;;;;;5059259;28;20040;-71
2022/07/23 04:40:13;;;;;;;11.40;8.18;;;22.70;92.30;;;;;;5058628;28;20043;-71
2022/07/23 04:43:19;;;;;;;10.55;8.32;;;22.70;91.80;;;;;;5058617;28;20044;-71
2022/07/23 04:46:26;;;;;;;16.05;8.50;;;22.80;92.00;;;;;;5058676;28;20131;-71
2022/07/23 04:49:30;;;;;;;14.85;8.60;;;23.00;92.00;;;;;;5058658;28;20044;-72
2022/07/23 04:52:34;;;;;;;14.95;8.55;;;24.70;91.10;;;;;;5070842;28;20048;-72
2022/07/23 04:55:38;;;;;;;20.30;8.98;;;27.00;86.70;;;;;;5071191;28;20051;-71
2022/07/23 04:58:42;;;;;;;14.93;8.38;;;28.70;82.00;;;;;;5071119;28;20044;-72
2022/07/23 05:01:46;;;;;;;16.25;8.38;;;30.00;78.00;;;;;;5058720;28;20051;-71
2022/07/23 05:04:50;;;;;;;14.63;8.15;;;30.90;75.30;;;;;;5058222;28;20052;-72
2022/07/23 05:07:54;;;;;;;10.00;7.25;;;31.30;73.90;;;;;;5058520;28;20044;-72
2022/07/23 05:10:58;;;;;;;11.77;7.72;;;31.60;72.80;;;;;;5058528;28;20052;-72
2022/07/23 05:14:02;;;;;;;13.45;7.53;;;31.20;71.60;;;;;;5070355;28;20039;-72
2022/07/23 05:17:07;;;;;;;13.55;7.50;;;31.10;72.70;;;;;;5064950;28;20043;-72
2022/07/23 05:20:13;;;;;;;15.40;7.55;;;32.00;72.50;;;;;;5070942;28;20044;-71
2022/07/23 05:23:17;;;;;;;16.23;7.38;;;32.60;70.70;;;;;;5057829;28;20051;-72
2022/07/23 05:26:21;;;;;;;14.68;7.63;;;32.80;70.60;;;;;;5058462;28;20052;-71
2022/07/23 05:29:25;;;;;;;10.82;6.78;;;33.00;69.90;;;;;;5070641;28;20052;-72
2022/07/23 05:32:31;;;;;;;15.70;7.32;;;33.40;69.70;;;;;;5057966;28;20506;-72
2022/07/23 05:35:44;;;;;;;15.77;7.45;;;33.20;69.40;;;;;;5058119;28;20040;-72
2022/07/23 05:39:14;;;;;;;13.82;7.55;;;33.20;69.30;;;;;;5070367;28;20055;-71
2022/07/23 05:42:18;;;;;;;16.20;7.32;;;33.80;68.40;;;;;;5062473;28;20406;-71
2022/07/23 05:45:24;;;;;;;12.63;7.40;;;34.10;68.30;;;;;;5061991;28;20391;-71
2022/07/23 05:48:30;;;;;;;16.52;8.35;;;34.20;68.40;;;;;;5061872;28;20052;-71
2022/07/23 05:51:43;;;;;;;13.18;7.78;;;32.60;68.60;;;;;;5062425;28;20597;-71
2022/07/23 05:54:47;;;;;;;19.02;9.35;;;31.50;70.60;;;;;;5061758;28;20043;-71
2022/07/23 05:57:51;;;;;;;13.25;7.95;;;32.00;71.10;;;;;;5062097;28;20068;-71
2022/07/23 06:00:55;;;;;;;11.65;7.40;;;33.00;70.70;;;;;;5074438;28;20071;-71
2022/07/23 06:03:59;;;;;;;10.70;7.57;;;34.30;68.80;;;;;;5061768;28;20391;-71
2022/07/23 06:07:10;;;;;;;10.60;7.15;;;35.30;67.90;;;;;;5061744;28;20048;-72
2022/07/23 06:10:15;;;;;;;10.88;7.10;;;35.30;67.90;;;;;;5061764;28;20043;-72
2022/07/23 06:13:19;;;;;;;15.93;7.32;;;34.20;69.50;;;;;;5069528;28;20048;-72
2022/07/23 06:16:24;;;;;;;13.63;6.82;;;34.70;68.80;;;;;;5061284;28;20040;-72
2022/07/23 06:19:28;;;;;;;10.45;6.40;;;34.80;69.10;;;;;;5061777;28;20498;-71
2022/07/23 06:22:32;;;;;;;10.82;7.13;;;34.30;69.40;;;;;;5061879;28;20048;-72
2022/07/23 06:25:36;;;;;;;10.85;7.35;;;33.60;69.80;;;;;;5073829;28;20498;-72
2022/07/23 06:28:40;;;;;;;10.80;7.05;;;33.30;69.40;;;;;;5073942;28;20040;-72
2022/07/23 06:31:44;;;;;;;11.48;7.00;;;33.00;70.70;;;;;;5073516;28;20052;-72
2022/07/23 06:34:49;;;;;;;12.68;7.32;;;33.10;70.90;;;;;;5061350;28;20052;-72
2022/07/23 06:37:53;;;;;;;9.57;6.70;;;32.60;71.60;;;;;;5073517;28;20039;-71
2022/07/23 06:40:58;;;;;;;16.80;7.30;;;32.90;70.80;;;;;;5061364;28;20055;-72
2022/07/23 06:44:03;;;;;;;12.23;7.68;;;33.20;70.80;;;;;;5060794;28;20048;-72
2022/07/23 06:47:09;;;;;;;7.95;6.90;;;33.10;70.30;;;;;;5049519;28;20040;-72
2022/07/23 06:50:13;;;;;;;14.57;7.22;;;33.00;70.90;;;;;;5061172;28;20398;-72
2022/07/23 06:53:19;;;;;;;9.30;6.93;;;33.10;71.40;;;;;;5061137;28;20047;-72
2022/07/23 06:56:23;;;;;;;13.55;7.70;;;33.90;70.40;;;;;;5073383;28;20668;-72
2022/07/23 06:59:27;;;;;;;15.40;7.47;;;33.10;70.70;;;;;;5074052;28;20048;-72
2022/07/23 07:02:31;;;;;;;14.38;7.10;;;32.60;72.70;;;;;;5073528;28;20051;-72
2022/07/23 07:05:36;;;;;;;12.13;7.45;;;33.70;71.80;;;;;;5060917;28;20040;-71
2022/07/23 07:08:40;;;;;;;9.57;7.13;;;33.60;71.30;;;;;;5073894;28;20056;-72
2022/07/23 07:11:43;;;;;;;15.45;6.30;;;33.70;71.10;;;;;;5073031;28;20391;-72
2022/07/23 07:14:47;;;;;;;9.80;6.97;;;35.00;70.40;;;;;;5073246;28;20051;-72
2022/07/23 07:17:51;;;;;;;11.75;6.10;;;35.90;67.90;;;;;;5073295;28;20043;-72
2022/07/23 07:20:56;;;;;;;14.25;6.75;;;36.70;67.10;;;;;;5073216;28;20048;-72
2022/07/23 07:24:00;;;;;;;12.77;6.10;;;37.00;66.90;;;;;;5060004;28;20044;-72
2022/07/23 07:27:04;;;;;;;11.00;6.30;;;38.20;65.90;;;;;;5072763;28;20039;-73
2022/07/23 07:30:09;;;;;;;10.90;5.85;;;38.80;64.40;;;;;;5072712;28;20052;-73
2022/07/23 07:33:14;;;;;;;11.57;5.43;;;38.60;63.80;;;;;;5070861;28;20494;-72
2022/07/23 07:36:18;;;;;;;11.23;6.07;;;39.30;62.70;;;;;;5072310;28;20047;-72
2022/07/23 07:39:22;;;;;;;11.55;5.82;;;38.80;63.00;;;;;;5072410;28;20055;-71
2022/07/23 07:42:26;;;;;;;10.48;5.47;;;39.30;63.00;;;;;;5072146;28;20051;-72
2022/07/23 07:45:30;;;;;;;33.55;7.88;;;39.30;62.70;;;;;;5071663;28;20395;-72
2022/07/23 07:48:38;;;;;;;8.38;5.40;;;39.20;63.00;;;;;;5071801;28;20055;-72
2022/07/23 07:51:42;;;;;;;6.45;5.43;;;37.90;63.30;;;;;;5072255;28;20052;-72
2022/07/23 07:54:46;;;;;;;12.90;5.88;;;38.40;63.60;;;;;;5071427;28;20042;-72
2022/07/23 07:57:50;;;;;;;10.48;5.15;;;38.30;63.50;;;;;;5071547;28;20043;-72
2022/07/23 08:00:54;;;;;;;7.43;5.38;;;39.90;62.40;;;;;;5071911;28;20047;-72
2022/07/23 08:03:58;;;;;;;11.30;5.63;;;39.90;61.30;;;;;;5070528;28;20490;-72
2022/07/23 08:07:02;;;;;;;5.90;5.18;;;39.90;61.50;;;;;;5059204;28;20052;-72
2022/07/23 08:10:10;;;;;;;8.38;5.25;;;39.90;61.20;;;;;;5065775;28;20051;-72
2022/07/23 08:13:15;;;;;;;11.77;5.50;;;41.30;60.60;;;;;;5071218;28;20067;-72
2022/07/23 08:16:19;;;;;;;8.95;5.35;;;40.30;59.90;;;;;;5071248;28;20057;-72
2022/07/23 08:19:23;;;;;;;11.70;4.90;;;41.20;60.20;;;;;;5071519;28;20044;-72
2022/07/23 08:22:45;;;;;;;5.75;4.55;;;42.60;59.40;;;;;;5071504;28;20043;-72
2022/07/23 08:25:49;;;;;;;15.15;5.35;;;43.90;57.20;;;;;;5071339;28;20043;-70
2022/07/23 08:28:53;;;;;;;11.27;4.35;;;44.50;56.50;;;;;;5071497;28;20043;-72
2022/07/23 08:31:57;;;;;;;7.18;4.25;;;45.40;55.40;;;;;;5070970;28;20063;-72
2022/07/23 08:35:01;;;;;;;14.73;4.15;;;46.50;54.20;;;;;;5070567;28;20032;-72
2022/07/23 08:38:08;;;;;;;6.63;4.20;;;46.50;54.30;;;;;;5070708;28;20043;-72
2022/07/23 08:41:12;;;;;;;5.95;3.95;;;46.40;53.30;;;;;;5071022;28;20052;-72
2022/07/23 08:44:17;;;;;;;5.93;4.07;;;46.50;51.70;;;;;;5053694;28;20051;-72
2022/07/23 08:47:21;;;;;;;8.07;3.95;;;45.90;51.90;;;;;;5070832;28;20399;-72
2022/07/23 08:50:25;;;;;;;6.47;4.03;;;45.80;51.80;;;;;;5070474;28;20047;-71
2022/07/23 08:53:30;;;;;;;23.08;4.60;;;44.30;50.90;;;;;;5070168;28;20047;-72
2022/07/23 08:56:35;;;;;;;6.90;3.83;;;44.40;51.60;;;;;;5058164;28;20047;-72
2022/07/23 08:59:39;;;;;;;15.25;4.43;;;45.10;51.40;;;;;;5070426;28;20418;-72
2022/07/23 09:02:45;;;;;;;10.27;3.60;;;46.70;50.10;;;;;;5070471;28;20051;-72
2022/07/23 09:05:52;;;;;;;7.03;3.65;;;46.30;49.80;;;;;;5070533;28;20498;-72
2022/07/23 09:08:56;;;;;;;7.03;3.60;;;45.60;48.30;;;;;;5057965;28;20398;-72
2022/07/23 09:12:09;;;;;;;8.98;3.75;;;46.00;48.80;;;;;;5070382;28;20052;-72
2022/07/23 09:15:13;;;;;;;10.85;3.88;;;47.10;49.90;;;;;;5069910;28;20047;-72
2022/07/23 09:18:17;;;;;;;10.52;3.85;;;46.80;50.30;;;;;;5070332;28;20063;-72
2022/07/23 09:21:28;;;;;;;5.18;3.50;;;47.80;49.90;;;;;;5057832;28;20048;-72
2022/07/23 09:24:33;;;;;;;10.95;4.47;;;49.40;49.30;;;;;;5070248;28;20047;-71
2022/07/23 09:27:46;;;;;;;9.82;3.53;;;50.40;48.20;;;;;;5070242;28;20052;-71
2022/07/23 09:30:51;;;;;;;5.82;3.33;;;51.00;48.00;;;;;;5070061;28;20044;-70
2022/07/23 09:34:11;;;;;;;7.07;3.30;;;50.70;48.00;;;;;;5069409;28;20043;-72
2022/07/23 09:37:17;;;;;;;7.55;3.58;;;51.10;47.60;;;;;;5070171;28;20051;-71
2022/07/23 09:40:22;;;;;;;5.43;3.28;;;50.90;47.40;;;;;;5070001;28;20605;-72
2022/07/23 09:43:28;;;;;;;9.07;4.07;;;50.80;47.30;;;;;;5069753;28;20052;-72
2022/07/23 09:46:32;;;;;;;5.53;3.65;;;51.40;47.40;;;;;;5057779;28;20051;-72
2022/07/23 09:49:36;;;;;;;8.88;3.70;;;52.10;47.20;;;;;;5070369;28;20048;-72
2022/07/23 09:52:48;;;;;;;5.70;3.28;;;51.80;47.00;;;;;;5069972;28;20043;-72
2022/07/23 09:55:57;;;;;;;8.77;3.60;;;51.00;47.60;;;;;;5069708;28;20044;-72
2022/07/23 09:59:06;;;;;;;7.28;3.78;;;50.80;48.50;;;;;;5070050;28;20036;-72
2022/07/23 10:02:12;;;;;;;9.13;4.25;;;48.90;49.20;;;;;;5070188;28;20047;-73
2022/07/23 10:05:37;;;;;;;7.32;4.35;;;45.70;50.90;;;;;;5069721;28;20047;-72
2022/07/23 10:09:01;;;;;;;7.90;4.00;;;47.30;51.60;;;;;;5070015;28;20502;-71
2022/07/23 10:15:52;;;;;;;6.07;3.83;;;50.20;49.70;;;;;;5049938;28;20056;-73
2022/07/23 10:18:56;;;;;;;9.18;4.22;;;51.30;48.80;;;;;;5069834;28;20051;-72
2022/07/23 10:22:25;;;;;;;7.13;4.15;;;52.30;48.00;;;;;;5069660;28;20223;-72
2022/07/23 10:25:56;;;;;;;10.38;4.03;;;53.00;48.00;;;;;;5069203;28;20398;-71
2022/07/23 10:29:16;;;;;;;8.50;3.60;;;49.80;47.60;;;;;;5073481;28;20048;-72
2022/07/23 10:32:51;;;;;;;7.28;3.90;;;49.90;48.70;;;;;;5073358;28;20052;-72
2022/07/23 10:36:15;;;;;;;8.70;3.70;;;50.90;49.10;;;;;;5073204;28;20048;-72
2022/07/23 10:39:28;;;;;;;6.32;3.55;;;51.50;48.60;;;;;;5073271;28;20040;-72
2022/07/23 10:42:35;;;;;;;6.22;3.40;;;51.50;49.00;;;;;;5073221;28;20044;-73
2022/07/23 10:45:39;;;;;;;8.30;3.67;;;52.30;48.90;;;;;;5072864;28;20047;-72
2022/07/23 10:48:43;;;;;;;6.60;3.60;;;52.60;47.50;;;;;;5072824;28;20040;-71
2022/07/23 10:52:24;;;;;;;6.53;3.60;;;53.00;47.30;;;;;;5060212;28;20595;-72
2022/07/23 10:55:41;;;;;;;6.72;3.65;;;52.90;47.20;;;;;;5050651;28;20054;-72
2022/07/23 10:58:47;;;;;;;5.60;3.42;;;50.50;47.40;;;;;;5072734;28;20039;-71
2022/07/23 11:01:50;;;;;;;6.25;3.67;;;48.90;48.90;;;;;;5072380;28;20039;-73
2022/07/23 11:04:59;;;;;;;7.63;3.78;;;49.90;49.10;;;;;;5072923;28;20043;-72
2022/07/23 11:08:03;;;;;;;5.65;3.78;;;52.00;47.90;;;;;;5073004;28;20043;-72
2022/07/23 11:11:10;;;;;;;8.70;3.92;;;48.60;48.20;;;;;;5072326;28;20054;-73
2022/07/23 11:14:14;;;;;;;5.50;3.90;;;48.40;48.80;;;;;;5072430;28;20043;-71
2022/07/23 11:17:21;;;;;;;7.93;3.70;;;48.80;48.90;;;;;;5072529;28;20040;-71
2022/07/23 11:20:25;;;;;;;7.18;3.75;;;47.60;49.70;;;;;;5072439;28;20387;-73
2022/07/23 11:24:16;;;;;;;6.43;3.58;;;48.10;49.70;;;;;;5070858;28;20035;-73
2022/07/23 11:27:37;;;;;;;6.47;3.88;;;49.60;49.10;;;;;;5072417;28;20044;-71
2022/07/23 11:30:44;;;;;;;9.38;4.85;;;48.80;49.00;;;;;;5072005;28;20039;-72
2022/07/23 11:34:26;;;;;;;7.18;4.38;;;49.50;49.80;;;;;;5071709;28;20048;-72
2022/07/23 11:37:39;;;;;;;8.25;4.15;;;49.20;50.10;;;;;;5071060;28;20051;-73
2022/07/23 11:40:48;;;;;;;6.88;4.30;;;47.60;51.00;;;;;;5071955;28;20406;-72
2022/07/23 11:43:52;;;;;;;;;;;48.00;51.00;;;;;;5072372;28;20392;-72
2022/07/23 11:47:04;;;;;;;9.77;4.60;;;48.00;50.80;;;;;;5071918;28;19916;-72
2022/07/23 11:50:08;;;;;;;10.30;4.55;;;48.90;50.40;;;;;;5071481;28;20040;-73
2022/07/23 11:53:13;;;;;;;6.90;4.25;;;49.20;50.20;;;;;;5071709;28;20040;-72
2022/07/23 11:56:17;;;;;;;12.75;4.53;;;48.30;50.30;;;;;;5071677;28;20043;-73
2022/07/23 11:59:21;;;;;;;10.77;4.70;;;46.10;50.60;;;;;;5071179;28;20040;-72
2022/07/23 12:02:25;;;;;;;10.88;4.85;;;44.30;52.10;;;;;;5071584;28;20044;-73
2022/07/23 12:05:33;;;;;;;7.13;4.20;;;44.90;52.10;;;;;;5058654;28;20301;-72
2022/07/23 12:08:41;;;;;;;6.65;4.20;;;44.90;51.80;;;;;;5072039;28;20040;-72
2022/07/23 12:12:01;;;;;;;6.57;4.30;;;45.60;52.20;;;;;;5058580;28;20048;-72
2022/07/23 12:15:06;;;;;;;5.70;4.40;;;46.30;51.70;;;;;;5070924;28;20051;-72
2022/07/23 12:18:13;;;;;;;4.75;3.80;;;46.10;51.80;;;;;;5071433;28;20036;-72
2022/07/23 12:21:18;;;;;;;6.50;4.25;;;45.90;51.60;;;;;;5070934;28;20047;-71
2022/07/23 12:24:21;;;;;;;7.35;4.53;;;46.20;52.20;;;;;;5070615;28;20051;-72
2022/07/23 12:27:26;;;;;;;10.80;5.15;;;46.10;52.20;;;;;;5071048;28;20051;-72
2022/07/23 12:30:38;;;;;;;9.75;5.25;;;44.60;52.90;;;;;;5071029;28;20399;-71
2022/07/23 12:33:43;;;;;;;7.25;4.68;;;44.50;52.80;;;;;;5070227;28;20055;-72
2022/07/23 12:36:47;;;;;;;7.35;4.70;;;44.30;53.50;;;;;;5071001;28;20047;-71
2022/07/23 12:39:51;;;;;;;7.20;4.60;;;43.80;53.40;;;;;;5070908;28;20055;-71
2022/07/23 12:43:07;;;;;;;7.95;4.78;;;44.70;53.60;;;;;;5070926;28;20039;-72
2022/07/23 12:46:16;;;;;;;9.60;4.78;;;44.70;52.50;;;;;;5070867;28;20051;-71
2022/07/23 12:49:27;;;;;;;8.60;5.10;;;44.60;52.80;;;;;;5070218;28;20043;-71
2022/07/23 12:52:32;;;;;;;6.75;4.75;;;44.80;53.20;;;;;;5070695;28;20059;-71
2022/07/23 12:55:39;;;;;;;9.10;4.95;;;44.10;52.40;;;;;;5070712;28;20487;-70
2022/07/23 12:58:50;;;;;;;7.32;5.00;;;44.40;53.10;;;;;;5070560;28;20035;-70
2022/07/23 13:01:57;;;;;;;9.65;5.00;;;44.80;53.00;;;;;;5070744;28;20118;-72
2022/07/23 13:05:02;;;;;;;6.55;4.60;;;44.70;52.90;;;;;;5070069;28;20399;-72
2022/07/23 13:08:06;;;;;;;7.40;4.68;;;43.90;53.70;;;;;;5070281;28;20048;-72
2022/07/23 13:11:09;;;;;;;9.95;4.55;;;44.00;53.40;;;;;;5070323;28;20051;-73
2022/07/23 13:14:15;;;;;;;8.23;4.85;;;44.20;53.50;;;;;;5070026;28;20039;-72
2022/07/23 13:17:19;;;;;;;12.10;5.60;;;42.60;53.80;;;;;;5070565;28;20047;-70
2022/07/23 13:20:23;;;;;;;12.48;5.82;;;43.00;54.20;;;;;;5070161;28;20383;-73
2022/07/23 13:23:27;;;;;;;7.95;4.70;;;43.00;53.90;;;;;;5069136;28;20055;-73
2022/07/23 13:26:32;;;;;;;8.27;4.70;;;43.10;54.00;;;;;;5070584;28;20047;-72
2022/07/23 13:29:36;;;;;;;9.57;4.75;;;43.00;53.30;;;;;;5070326;28;20051;-72
2022/07/23 13:32:41;;;;;;;6.10;4.40;;;42.90;53.60;;;;;;5068547;28;20055;-72
2022/07/23 13:35:48;;;;;;;11.95;4.80;;;43.00;53.70;;;;;;5070653;28;20059;-72
2022/07/23 13:38:52;;;;;;;7.55;4.75;;;41.50;54.20;;;;;;5070047;28;20510;-73
2022/07/23 13:41:56;;;;;;;8.18;4.60;;;41.80;54.30;;;;;;5057935;28;20051;-72
2022/07/23 13:45:00;;;;;;;13.48;5.22;;;42.40;54.20;;;;;;5069756;28;20047;-72
2022/07/23 13:48:06;;;;;;;7.90;5.10;;;42.60;53.80;;;;;;5070238;28;20048;-72
2022/07/23 13:51:10;;;;;;;13.30;5.20;;;42.70;53.70;;;;;;5069953;28;20039;-73
2022/07/23 13:54:14;;;;;;;7.85;4.60;;;40.90;54.40;;;;;;5069949;28;20044;-73
2022/07/23 13:57:18;;;;;;;10.95;6.00;;;39.60;56.60;;;;;;5070495;28;20043;-73
2022/07/23 14:00:23;;;;;;;6.85;5.05;;;39.90;56.80;;;;;;5070025;28;20051;-71
2022/07/23 14:03:27;;;;;;;7.28;4.60;;;40.40;56.50;;;;;;5073457;28;20063;-72
2022/07/23 14:06:31;;;;;;;6.88;4.45;;;40.60;56.70;;;;;;5061653;28;20039;-73
2022/07/23 14:09:35;;;;;;;13.73;5.07;;;41.00;56.70;;;;;;5073757;28;20490;-71
2022/07/23 14:12:39;;;;;;;7.88;5.10;;;41.10;56.80;;;;;;5073820;28;20052;-72
2022/07/23 14:15:43;;;;;;;8.77;4.82;;;41.20;56.40;;;;;;5073894;28;20039;-72
2022/07/23 14:18:47;;;;;;;9.30;4.68;;;41.30;56.70;;;;;;5073637;28;20047;-72
2022/07/23 14:21:51;;;;;;;7.53;5.28;;;41.10;56.80;;;;;;5073525;28;20047;-72
2022/07/23 14:24:57;;;;;;;24.40;5.55;;;41.00;56.80;;;;;;5072841;28;20048;-72
2022/07/23 14:28:01;;;;;;;6.13;5.05;;;40.90;57.10;;;;;;5073472;28;20075;-72
2022/07/23 14:31:05;;;;;;;9.27;4.90;;;40.60;57.10;;;;;;5073038;28;20039;-72
2022/07/23 14:34:09;;;;;;;8.90;4.90;;;40.60;57.50;;;;;;5072364;28;20068;-72
2022/07/23 14:37:13;;;;;;;8.65;5.18;;;40.60;57.50;;;;;;5068319;28;20036;-73
2022/07/23 14:40:17;;;;;;;12.25;5.35;;;39.80;57.70;;;;;;5073102;28;20055;-72
2022/07/23 14:43:21;;;;;;;7.68;4.97;;;39.80;58.00;;;;;;5073253;28;20043;-71
2022/07/23 14:46:25;;;;;;;8.60;4.70;;;39.70;58.20;;;;;;5073212;28;20060;-71
2022/07/23 14:49:30;;;;;;;9.88;5.25;;;39.40;58.70;;;;;;5072747;28;20039;-72
2022/07/23 14:52:37;;;;;;;6.80;4.88;;;39.10;58.50;;;;;;5072769;28;20048;-72
2022/07/23 14:55:41;;;;;;;8.43;5.05;;;38.80;59.10;;;;;;5073177;28;20061;-72
2022/07/23 14:58:45;;;;;;;7.93;4.90;;;39.00;59.00;;;;;;5073084;28;20051;-72
2022/07/23 15:01:49;;;;;;;25.90;6.20;;;39.00;59.30;;;;;;5072806;28;20047;-72
2022/07/23 15:04:53;;;;;;;8.00;4.65;;;38.70;59.40;;;;;;5072314;28;20048;-72
2022/07/23 15:07:58;;;;;;;13.02;5.10;;;37.90;59.50;;;;;;5073132;28;20051;-73
2022/07/23 15:11:01;;;;;;;9.55;4.95;;;38.20;59.80;;;;;;5072559;28;20048;-72
2022/07/23 15:14:06;;;;;;;9.48;4.63;;;38.40;59.60;;;;;;5054294;28;20040;-72
2022/07/23 15:17:10;;;;;;;11.13;4.65;;;38.30;59.70;;;;;;5072638;28;20047;-72
2022/07/23 15:20:14;;;;;;;7.13;4.68;;;37.80;59.90;;;;;;5072469;28;20039;-72
2022/07/23 15:23:18;;;;;;;9.23;4.30;;;37.60;60.50;;;;;;5071637;28;20047;-72
2022/07/23 15:26:23;;;;;;;7.28;4.60;;;37.50;60.70;;;;;;5072429;28;20048;-72
2022/07/23 15:29:27;;;;;;;11.90;4.85;;;37.50;60.70;;;;;;5072378;28;20051;-72
2022/07/23 15:32:30;;;;;;;10.20;4.43;;;37.60;60.50;;;;;;5071855;28;20044;-72
2022/07/23 15:35:34;;;;;;;9.23;4.70;;;37.70;60.60;;;;;;5071474;28;20044;-72
2022/07/23 15:38:38;;;;;;;6.82;4.00;;;37.70;60.60;;;;;;5072320;28;20040;-72
2022/07/23 15:41:49;;;;;;;7.80;4.28;;;37.60;60.50;;;;;;5072121;28;20059;-72
2022/07/23 15:44:53;;;;;;;8.80;4.25;;;37.50;60.60;;;;;;5071442;28;20051;-73
2022/07/23 15:47:57;;;;;;;7.95;4.65;;;37.40;60.30;;;;;;5072172;28;20114;-71
2022/07/23 15:51:01;;;;;;;7.05;4.50;;;37.20;60.60;;;;;;5072164;28;20486;-71
2022/07/23 15:54:05;;;;;;;5.63;4.25;;;37.00;60.70;;;;;;5071648;28;20040;-71
2022/07/23 15:57:09;;;;;;;6.78;4.07;;;36.90;60.70;;;;;;5071831;28;20040;-71
2022/07/23 16:00:13;;;;;;;10.35;4.40;;;36.90;60.50;;;;;;5071319;28;20035;-72
2022/07/23 16:03:17;;;;;;;4.70;4.00;;;36.90;60.80;;;;;;5054944;28;20056;-72
2022/07/23 16:06:21;;;;;;;8.18;4.22;;;36.80;60.70;;;;;;5071730;28;20040;-71